createdAt,value
2017-12-10T00:00:06.000Z,43.579
2017-12-10T00:10:07.000Z,43.206
2017-12-10T00:20:06.000Z,43.074
2017-12-10T00:30:06.000Z,43.16
2017-12-10T00:40:06.000Z,43.625
2017-12-10T00:50:06.000Z,43.591
2017-12-10T01:00:06.000Z,42.56
2017-12-10T01:10:06.000Z,44.577
2017-12-10T01:20:07.000Z,43.458
2017-12-10T01:30:06.000Z,44.021
2017-12-10T01:40:06.000Z,47.384
2017-12-10T01:50:06.000Z,45.802
2017-12-10T02:00:07.000Z,45.977
2017-12-10T02:10:07.000Z,46.181
2017-12-10T02:20:06.000Z,47.606
2017-12-10T02:30:06.000Z,45.668
2017-12-10T02:40:06.000Z,46.377
2017-12-10T02:50:06.000Z,45.536
2017-12-10T03:00:06.000Z,46.739
2017-12-10T03:10:06.000Z,46.519
2017-12-10T03:20:06.000Z,46.394
2017-12-10T03:30:06.000Z,47.14
2017-12-10T03:40:06.000Z,47.366
2017-12-10T03:50:06.000Z,47.375
2017-12-10T04:00:06.000Z,46.917
2017-12-10T04:10:06.000Z,48.88
2017-12-10T04:20:06.000Z,48.467
2017-12-10T04:30:06.000Z,46.086
2017-12-10T04:40:06.000Z,45.734
2017-12-10T04:50:06.000Z,45.33
2017-12-10T05:00:06.000Z,45.488
2017-12-10T05:10:06.000Z,45.486
2017-12-10T05:20:06.000Z,46.371
2017-12-10T05:30:07.000Z,46.5
2017-12-10T05:40:07.000Z,46.198
2017-12-10T05:50:07.000Z,45.882
2017-12-10T06:00:07.000Z,45.87
2017-12-10T06:10:07.000Z,45.625
2017-12-10T06:20:07.000Z,45.236
2017-12-10T06:30:07.000Z,44.909
2017-12-10T06:40:07.000Z,44.711
2017-12-10T06:50:07.000Z,44.5
2017-12-10T07:00:07.000Z,44.18
2017-12-10T07:10:07.000Z,43.948
2017-12-10T07:20:07.000Z,43.693
2017-12-10T07:30:07.000Z,43.373
2017-12-10T07:40:07.000Z,43.502
2017-12-10T07:50:07.000Z,43.281
2017-12-10T08:00:07.000Z,42.874
2017-12-10T08:10:07.000Z,42.766
2017-12-10T08:20:07.000Z,42.356
2017-12-10T08:30:07.000Z,42.146
2017-12-10T08:40:07.000Z,42.377
2017-12-10T08:50:07.000Z,42.284
2017-12-10T09:00:07.000Z,42.216
2017-12-10T09:10:07.000Z,42.289
2017-12-10T09:20:07.000Z,42.435
2017-12-10T09:30:07.000Z,42.116
2017-12-10T09:40:07.000Z,41.947
2017-12-10T09:50:07.000Z,41.679
2017-12-10T10:00:07.000Z,41.53
2017-12-10T10:10:07.000Z,41.314
2017-12-10T10:20:07.000Z,41.025
2017-12-10T10:30:07.000Z,41.047
2017-12-10T10:40:07.000Z,40.978
2017-12-10T10:50:07.000Z,35.886
2017-12-10T11:00:07.000Z,38.813
2017-12-10T11:10:07.000Z,37.103
2017-12-10T11:20:07.000Z,36.982
2017-12-10T11:30:07.000Z,37.156
2017-12-10T11:40:07.000Z,37.474
2017-12-10T11:50:07.000Z,37.922
2017-12-10T12:00:07.000Z,38.014
2017-12-10T12:10:07.000Z,37.139
2017-12-10T12:30:07.000Z,37.379
2017-12-10T12:40:07.000Z,37.8
2017-12-10T12:50:07.000Z,38.382
2017-12-10T13:00:07.000Z,37.464
2017-12-10T13:10:07.000Z,37.393
2017-12-10T13:20:07.000Z,36.121
2017-12-10T13:30:08.000Z,37.545
2017-12-10T13:40:07.000Z,36.138
2017-12-10T13:50:07.000Z,37.265
2017-12-10T14:00:08.000Z,37.084
2017-12-10T14:10:08.000Z,36.183
2017-12-10T14:20:08.000Z,35.887
2017-12-10T14:30:08.000Z,36.02
2017-12-10T14:40:08.000Z,35.449
2017-12-10T14:50:09.000Z,35.886
2017-12-10T15:00:08.000Z,35.661
2017-12-10T15:10:08.000Z,35.861
2017-12-10T15:20:08.000Z,32.85
2017-12-10T15:30:08.000Z,33.013
2017-12-10T15:40:08.000Z,40.151
2017-12-10T15:50:08.000Z,38.431
2017-12-10T16:00:08.000Z,36.307
2017-12-10T16:10:08.000Z,38.266
2017-12-10T16:20:08.000Z,37.831
2017-12-10T16:30:08.000Z,37.777
2017-12-10T16:40:08.000Z,37.775
2017-12-10T16:50:08.000Z,37.653
2017-12-10T17:00:08.000Z,38.236
2017-12-10T17:10:08.000Z,38.352
2017-12-10T17:20:08.000Z,38.215
2017-12-10T17:30:08.000Z,37.875
2017-12-10T17:40:08.000Z,37.613
2017-12-10T17:50:08.000Z,37.62
2017-12-10T18:00:08.000Z,37.444
2017-12-10T18:10:08.000Z,37.463
2017-12-10T18:20:08.000Z,37.08
2017-12-10T18:30:08.000Z,36.915
2017-12-10T18:40:08.000Z,37.054
2017-12-10T18:50:08.000Z,36.691
2017-12-10T19:00:08.000Z,36.414
2017-12-10T19:10:08.000Z,36.276
2017-12-10T19:20:08.000Z,35.975
2017-12-10T19:30:08.000Z,36.09
2017-12-10T19:40:08.000Z,35.71
2017-12-10T19:50:08.000Z,35.618
2017-12-10T20:00:08.000Z,35.745
2017-12-10T20:10:08.000Z,35.837
2017-12-10T20:20:08.000Z,33.482
2017-12-10T20:30:08.000Z,35.728
2017-12-10T20:40:08.000Z,35.511
2017-12-10T20:50:08.000Z,35.459
2017-12-10T21:00:08.000Z,35.62
2017-12-10T21:10:08.000Z,35.635
2017-12-10T21:20:08.000Z,35.065
2017-12-10T21:30:08.000Z,35.589
2017-12-10T21:40:08.000Z,35.423
2017-12-10T21:50:08.000Z,35.366
2017-12-10T22:00:08.000Z,35.501
2017-12-10T22:10:08.000Z,35.213
2017-12-10T22:20:09.000Z,35.046
2017-12-10T22:30:09.000Z,34.829
2017-12-10T22:40:09.000Z,34.999
2017-12-10T22:50:09.000Z,34.875
2017-12-10T23:00:09.000Z,34.385
2017-12-10T23:10:09.000Z,34.643
2017-12-10T23:20:09.000Z,34.705
2017-12-10T23:40:09.000Z,34.839
2017-12-10T23:50:09.000Z,34.784
